sensor_id;sensor_type;location;lat;lon;timestamp;temperature;humidity
736;DHT22;352;48.626;9.238;2023-04-23T00:00:22;15.10;99.90
736;DHT22;352;48.626;9.238;2023-04-23T00:02:52;15.10;99.90
736;DHT22;352;48.626;9.238;2023-04-23T00:05:19;15.10;99.90
736;DHT22;352;48.626;9.238;2023-04-23T00:07:46;15.10;99.90
736;DHT22;352;48.626;9.238;2023-04-23T00:10:15;15.00;99.90
736;DHT22;352;48.626;9.238;2023-04-23T00:12:42;15.00;99.90
736;DHT22;352;48.626;9.238;2023-04-23T00:15:11;15.00;99.90
736;DHT22;352;48.626;9.238;2023-04-23T00:17:38;15.00;99.90
736;DHT22;352;48.626;9.238;2023-04-23T00:20:06;15.00;99.90
736;DHT22;352;48.626;9.238;2023-04-23T00:22:33;14.90;99.90
736;DHT22;352;48.626;9.238;2023-04-23T00:25:00;14.90;99.90
736;DHT22;352;48.626;9.238;2023-04-23T00:27:29;14.90;99.90
736;DHT22;352;48.626;9.238;2023-04-23T00:29:55;14.90;99.90
736;DHT22;352;48.626;9.238;2023-04-23T00:32:22;14.90;99.90
736;DHT22;352;48.626;9.238;2023-04-23T00:34:49;14.90;99.90
736;DHT22;352;48.626;9.238;2023-04-23T00:37:16;14.90;99.90
736;DHT22;352;48.626;9.238;2023-04-23T00:39:43;14.90;99.90
736;DHT22;352;48.626;9.238;2023-04-23T00:42:10;14.90;99.90
736;DHT22;352;48.626;9.238;2023-04-23T00:44:39;14.90;99.90
736;DHT22;352;48.626;9.238;2023-04-23T00:47:06;14.90;99.90
736;DHT22;352;48.626;9.238;2023-04-23T00:49:33;14.90;99.90
736;DHT22;352;48.626;9.238;2023-04-23T00:52:00;14.90;99.90
736;DHT22;352;48.626;9.238;2023-04-23T00:54:27;14.90;99.90
736;DHT22;352;48.626;9.238;2023-04-23T00:56:54;14.90;99.90
736;DHT22;352;48.626;9.238;2023-04-23T00:59:22;14.90;99.90
736;DHT22;352;48.626;9.238;2023-04-23T01:01:51;14.90;99.90
736;DHT22;352;48.626;9.238;2023-04-23T01:04:18;14.90;99.90
736;DHT22;352;48.626;9.238;2023-04-23T01:06:45;14.90;99.90
736;DHT22;352;48.626;9.238;2023-04-23T01:09:13;14.80;99.90
736;DHT22;352;48.626;9.238;2023-04-23T01:11:42;14.80;99.90
736;DHT22;352;48.626;9.238;2023-04-23T01:14:10;14.70;99.90
736;DHT22;352;48.626;9.238;2023-04-23T01:16:37;14.70;99.90
736;DHT22;352;48.626;9.238;2023-04-23T01:19:05;14.70;99.90
736;DHT22;352;48.626;9.238;2023-04-23T01:21:33;14.60;99.90
736;DHT22;352;48.626;9.238;2023-04-23T01:24:02;14.50;99.90
736;DHT22;352;48.626;9.238;2023-04-23T01:26:29;14.50;99.90
736;DHT22;352;48.626;9.238;2023-04-23T01:28:56;14.50;99.90
736;DHT22;352;48.626;9.238;2023-04-23T01:31:23;14.50;99.90
736;DHT22;352;48.626;9.238;2023-04-23T01:33:50;14.40;99.90
736;DHT22;352;48.626;9.238;2023-04-23T01:36:17;14.40;99.90
736;DHT22;352;48.626;9.238;2023-04-23T01:38:44;14.40;99.90
736;DHT22;352;48.626;9.238;2023-04-23T01:41:12;14.30;99.90
736;DHT22;352;48.626;9.238;2023-04-23T01:43:40;14.30;99.90
736;DHT22;352;48.626;9.238;2023-04-23T01:46:07;14.30;99.90
736;DHT22;352;48.626;9.238;2023-04-23T01:48:35;14.30;99.90
736;DHT22;352;48.626;9.238;2023-04-23T01:51:02;14.20;99.90
736;DHT22;352;48.626;9.238;2023-04-23T01:53:30;14.20;99.90
736;DHT22;352;48.626;9.238;2023-04-23T01:55:57;14.20;99.90
736;DHT22;352;48.626;9.238;2023-04-23T01:58:26;14.10;99.90
736;DHT22;352;48.626;9.238;2023-04-23T02:00:53;14.10;99.90
736;DHT22;352;48.626;9.238;2023-04-23T02:03:20;14.10;99.90
736;DHT22;352;48.626;9.238;2023-04-23T02:05:47;14.10;99.90
736;DHT22;352;48.626;9.238;2023-04-23T02:08:14;14.10;99.90
736;DHT22;352;48.626;9.238;2023-04-23T02:10:41;14.10;99.90
736;DHT22;352;48.626;9.238;2023-04-23T02:13:08;14.10;99.90
736;DHT22;352;48.626;9.238;2023-04-23T02:15:36;14.00;99.90
736;DHT22;352;48.626;9.238;2023-04-23T02:18:03;14.00;99.90
736;DHT22;352;48.626;9.238;2023-04-23T02:20:31;14.00;99.90
736;DHT22;352;48.626;9.238;2023-04-23T02:22:58;14.00;99.90
736;DHT22;352;48.626;9.238;2023-04-23T02:25:24;14.00;99.90
736;DHT22;352;48.626;9.238;2023-04-23T02:27:51;14.00;99.90
736;DHT22;352;48.626;9.238;2023-04-23T02:30:18;13.90;99.90
736;DHT22;352;48.626;9.238;2023-04-23T02:32:46;13.90;99.90
736;DHT22;352;48.626;9.238;2023-04-23T02:35:13;13.80;99.90
736;DHT22;352;48.626;9.238;2023-04-23T02:37:39;13.80;99.90
736;DHT22;352;48.626;9.238;2023-04-23T02:40:07;13.80;99.90
736;DHT22;352;48.626;9.238;2023-04-23T02:42:34;13.80;99.90
736;DHT22;352;48.626;9.238;2023-04-23T02:45:01;13.80;99.90
736;DHT22;352;48.626;9.238;2023-04-23T02:47:28;13.70;99.90
736;DHT22;352;48.626;9.238;2023-04-23T02:49:57;13.70;99.90
736;DHT22;352;48.626;9.238;2023-04-23T02:52:23;13.70;99.90
736;DHT22;352;48.626;9.238;2023-04-23T02:54:50;13.70;99.90
736;DHT22;352;48.626;9.238;2023-04-23T02:57:17;13.70;99.90
736;DHT22;352;48.626;9.238;2023-04-23T02:59:44;13.70;99.90
736;DHT22;352;48.626;9.238;2023-04-23T03:02:11;13.70;99.90
736;DHT22;352;48.626;9.238;2023-04-23T03:04:38;13.70;99.90
736;DHT22;352;48.626;9.238;2023-04-23T03:07:06;13.70;99.90
736;DHT22;352;48.626;9.238;2023-04-23T03:09:33;13.70;99.90
736;DHT22;352;48.626;9.238;2023-04-23T03:11:59;13.70;99.90
736;DHT22;352;48.626;9.238;2023-04-23T03:14:26;13.60;99.90
736;DHT22;352;48.626;9.238;2023-04-23T03:16:53;13.60;99.90
736;DHT22;352;48.626;9.238;2023-04-23T03:19:20;13.60;99.90
736;DHT22;352;48.626;9.238;2023-04-23T03:21:47;13.60;99.90
736;DHT22;352;48.626;9.238;2023-04-23T03:24:15;13.60;99.90
736;DHT22;352;48.626;9.238;2023-04-23T03:26:42;13.60;99.90
736;DHT22;352;48.626;9.238;2023-04-23T03:29:08;13.50;99.90
736;DHT22;352;48.626;9.238;2023-04-23T03:31:35;13.50;99.90
736;DHT22;352;48.626;9.238;2023-04-23T03:34:02;13.50;99.90
736;DHT22;352;48.626;9.238;2023-04-23T03:36:29;13.40;99.90
736;DHT22;352;48.626;9.238;2023-04-23T03:38:56;13.40;99.90
736;DHT22;352;48.626;9.238;2023-04-23T03:41:24;13.50;99.90
736;DHT22;352;48.626;9.238;2023-04-23T03:43:51;13.40;99.90
736;DHT22;352;48.626;9.238;2023-04-23T03:46:18;13.40;99.90
736;DHT22;352;48.626;9.238;2023-04-23T03:48:44;13.40;99.90
736;DHT22;352;48.626;9.238;2023-04-23T03:51:11;13.30;99.90
736;DHT22;352;48.626;9.238;2023-04-23T03:53:38;13.20;99.90
736;DHT22;352;48.626;9.238;2023-04-23T03:56:04;13.20;99.90
736;DHT22;352;48.626;9.238;2023-04-23T03:58:32;13.10;99.90
736;DHT22;352;48.626;9.238;2023-04-23T04:00:59;13.10;99.90
736;DHT22;352;48.626;9.238;2023-04-23T04:03:26;13.10;99.90
736;DHT22;352;48.626;9.238;2023-04-23T04:05:53;13.00;99.90
736;DHT22;352;48.626;9.238;2023-04-23T04:08:20;13.00;99.90
736;DHT22;352;48.626;9.238;2023-04-23T04:10:46;13.00;99.90
736;DHT22;352;48.626;9.238;2023-04-23T04:13:13;13.00;99.90
736;DHT22;352;48.626;9.238;2023-04-23T04:15:41;13.00;99.90
736;DHT22;352;48.626;9.238;2023-04-23T04:18:08;13.00;99.90
736;DHT22;352;48.626;9.238;2023-04-23T04:20:35;13.00;99.90
736;DHT22;352;48.626;9.238;2023-04-23T04:23:01;13.00;99.90
736;DHT22;352;48.626;9.238;2023-04-23T04:25:28;13.00;99.90
736;DHT22;352;48.626;9.238;2023-04-23T04:27:55;13.00;99.90
736;DHT22;352;48.626;9.238;2023-04-23T04:30:23;13.00;99.90
736;DHT22;352;48.626;9.238;2023-04-23T04:32:52;13.00;99.90
736;DHT22;352;48.626;9.238;2023-04-23T04:35:19;13.00;99.90
736;DHT22;352;48.626;9.238;2023-04-23T04:37:45;13.10;99.90
736;DHT22;352;48.626;9.238;2023-04-23T04:40:14;13.10;99.90
736;DHT22;352;48.626;9.238;2023-04-23T04:42:41;13.00;99.90
736;DHT22;352;48.626;9.238;2023-04-23T04:45:08;13.10;99.90
736;DHT22;352;48.626;9.238;2023-04-23T04:47:35;13.10;99.90
736;DHT22;352;48.626;9.238;2023-04-23T04:50:03;13.10;99.90
736;DHT22;352;48.626;9.238;2023-04-23T04:52:30;13.10;99.90
736;DHT22;352;48.626;9.238;2023-04-23T04:54:57;13.10;99.90
736;DHT22;352;48.626;9.238;2023-04-23T04:57:24;13.10;99.90
736;DHT22;352;48.626;9.238;2023-04-23T04:59:51;13.10;99.90
736;DHT22;352;48.626;9.238;2023-04-23T05:02:18;13.10;99.90
736;DHT22;352;48.626;9.238;2023-04-23T05:04:46;13.10;99.90
736;DHT22;352;48.626;9.238;2023-04-23T05:07:14;13.10;99.90
736;DHT22;352;48.626;9.238;2023-04-23T05:09:41;13.10;99.90
736;DHT22;352;48.626;9.238;2023-04-23T05:12:07;13.10;99.90
736;DHT22;352;48.626;9.238;2023-04-23T05:14:34;13.10;99.90
736;DHT22;352;48.626;9.238;2023-04-23T05:17:01;13.10;99.90
736;DHT22;352;48.626;9.238;2023-04-23T05:19:28;13.20;99.90
736;DHT22;352;48.626;9.238;2023-04-23T05:21:54;13.20;99.90
736;DHT22;352;48.626;9.238;2023-04-23T05:24:23;13.20;99.90
736;DHT22;352;48.626;9.238;2023-04-23T05:26:49;13.20;99.90
736;DHT22;352;48.626;9.238;2023-04-23T05:29:16;13.30;99.90
736;DHT22;352;48.626;9.238;2023-04-23T05:31:44;13.40;99.90
736;DHT22;352;48.626;9.238;2023-04-23T05:34:11;13.40;99.90
736;DHT22;352;48.626;9.238;2023-04-23T05:36:37;13.50;99.90
736;DHT22;352;48.626;9.238;2023-04-23T05:39:04;13.60;99.90
736;DHT22;352;48.626;9.238;2023-04-23T05:41:33;13.70;99.90
736;DHT22;352;48.626;9.238;2023-04-23T05:43:59;13.70;99.90
736;DHT22;352;48.626;9.238;2023-04-23T05:46:26;13.70;99.90
736;DHT22;352;48.626;9.238;2023-04-23T05:48:53;13.80;99.90
736;DHT22;352;48.626;9.238;2023-04-23T05:51:19;13.80;99.90
736;DHT22;352;48.626;9.238;2023-04-23T05:53:46;13.80;99.90
736;DHT22;352;48.626;9.238;2023-04-23T05:56:13;13.80;99.90
736;DHT22;352;48.626;9.238;2023-04-23T05:58:42;13.90;99.90
736;DHT22;352;48.626;9.238;2023-04-23T06:01:09;13.90;99.90
736;DHT22;352;48.626;9.238;2023-04-23T06:03:35;14.00;99.90
736;DHT22;352;48.626;9.238;2023-04-23T06:06:02;14.30;99.90
736;DHT22;352;48.626;9.238;2023-04-23T06:08:29;14.50;99.90
736;DHT22;352;48.626;9.238;2023-04-23T06:10:56;14.50;99.90
736;DHT22;352;48.626;9.238;2023-04-23T06:13:22;14.50;99.90
736;DHT22;352;48.626;9.238;2023-04-23T06:15:50;14.60;99.90
736;DHT22;352;48.626;9.238;2023-04-23T06:18:17;14.80;99.90
736;DHT22;352;48.626;9.238;2023-04-23T06:20:44;15.30;99.90
736;DHT22;352;48.626;9.238;2023-04-23T06:23:11;15.60;99.90
736;DHT22;352;48.626;9.238;2023-04-23T06:25:38;15.70;99.90
736;DHT22;352;48.626;9.238;2023-04-23T06:28:05;16.00;99.90
736;DHT22;352;48.626;9.238;2023-04-23T06:30:31;16.50;99.90
736;DHT22;352;48.626;9.238;2023-04-23T06:33:00;17.00;99.90
736;DHT22;352;48.626;9.238;2023-04-23T06:35:28;17.60;99.90
736;DHT22;352;48.626;9.238;2023-04-23T06:37:55;18.10;99.90
736;DHT22;352;48.626;9.238;2023-04-23T06:40:22;18.10;99.90
736;DHT22;352;48.626;9.238;2023-04-23T06:42:49;17.90;99.90
736;DHT22;352;48.626;9.238;2023-04-23T06:45:15;17.80;99.90
736;DHT22;352;48.626;9.238;2023-04-23T06:47:42;17.00;99.90
736;DHT22;352;48.626;9.238;2023-04-23T06:50:10;17.20;99.90
736;DHT22;352;48.626;9.238;2023-04-23T06:52:37;17.10;99.90
736;DHT22;352;48.626;9.238;2023-04-23T06:55:05;17.20;99.90
736;DHT22;352;48.626;9.238;2023-04-23T06:57:32;18.10;99.90
736;DHT22;352;48.626;9.238;2023-04-23T06:59:59;18.10;99.90
736;DHT22;352;48.626;9.238;2023-04-23T07:02:25;18.90;99.90
736;DHT22;352;48.626;9.238;2023-04-23T07:04:52;20.50;99.90
736;DHT22;352;48.626;9.238;2023-04-23T07:07:20;21.10;99.90
736;DHT22;352;48.626;9.238;2023-04-23T07:12:14;21.40;98.20
736;DHT22;352;48.626;9.238;2023-04-23T07:14:41;21.40;97.40
736;DHT22;352;48.626;9.238;2023-04-23T07:17:08;21.70;95.80
736;DHT22;352;48.626;9.238;2023-04-23T07:19:35;21.90;96.90
736;DHT22;352;48.626;9.238;2023-04-23T07:22:02;22.50;95.60
736;DHT22;352;48.626;9.238;2023-04-23T07:24:30;22.90;95.20
736;DHT22;352;48.626;9.238;2023-04-23T07:26:57;23.30;92.90
736;DHT22;352;48.626;9.238;2023-04-23T07:29:23;23.80;91.30
736;DHT22;352;48.626;9.238;2023-04-23T07:31:50;24.60;91.30
736;DHT22;352;48.626;9.238;2023-04-23T07:34:17;25.30;91.20
736;DHT22;352;48.626;9.238;2023-04-23T07:36:43;25.20;96.40
736;DHT22;352;48.626;9.238;2023-04-23T07:39:10;24.70;90.90
736;DHT22;352;48.626;9.238;2023-04-23T07:41:39;25.00;80.80
736;DHT22;352;48.626;9.238;2023-04-23T07:44:05;25.40;80.80
736;DHT22;352;48.626;9.238;2023-04-23T07:46:32;25.70;82.20
736;DHT22;352;48.626;9.238;2023-04-23T07:48:59;25.80;95.20
736;DHT22;352;48.626;9.238;2023-04-23T07:53:53;26.60;90.20
736;DHT22;352;48.626;9.238;2023-04-23T07:59:05;25.50;74.60
736;DHT22;352;48.626;9.238;2023-04-23T08:01:32;23.10;74.80
736;DHT22;352;48.626;9.238;2023-04-23T08:03:59;23.10;93.30
736;DHT22;352;48.626;9.238;2023-04-23T08:08:55;25.30;96.00
736;DHT22;352;48.626;9.238;2023-04-23T08:13:49;25.90;83.80
736;DHT22;352;48.626;9.238;2023-04-23T08:16:17;26.00;72.00
736;DHT22;352;48.626;9.238;2023-04-23T08:28:32;26.30;95.20
736;DHT22;352;48.626;9.238;2023-04-23T08:33:27;26.70;71.10
736;DHT22;352;48.626;9.238;2023-04-23T08:35:54;25.40;87.30
736;DHT22;352;48.626;9.238;2023-04-23T08:38:21;21.70;67.70
736;DHT22;352;48.626;9.238;2023-04-23T08:40:50;25.20;78.40
736;DHT22;352;48.626;9.238;2023-04-23T08:43:27;24.40;89.50
736;DHT22;352;48.626;9.238;2023-04-23T08:46:01;24.30;90.90
736;DHT22;352;48.626;9.238;2023-04-23T08:48:30;24.00;92.20
736;DHT22;352;48.626;9.238;2023-04-23T08:50:58;24.10;75.40
736;DHT22;352;48.626;9.238;2023-04-23T08:53:27;24.00;73.80
736;DHT22;352;48.626;9.238;2023-04-23T08:55:57;24.80;72.00
736;DHT22;352;48.626;9.238;2023-04-23T08:58:24;24.90;90.30
736;DHT22;352;48.626;9.238;2023-04-23T09:00:52;24.60;82.90
736;DHT22;352;48.626;9.238;2023-04-23T09:03:20;24.20;94.70
736;DHT22;352;48.626;9.238;2023-04-23T09:05:50;24.40;91.50
736;DHT22;352;48.626;9.238;2023-04-23T09:08:18;25.00;69.00
736;DHT22;352;48.626;9.238;2023-04-23T09:10:46;24.90;69.50
736;DHT22;352;48.626;9.238;2023-04-23T09:13:14;25.00;70.30
736;DHT22;352;48.626;9.238;2023-04-23T09:15:41;24.80;70.00
736;DHT22;352;48.626;9.238;2023-04-23T09:18:08;24.80;72.50
736;DHT22;352;48.626;9.238;2023-04-23T09:20:35;25.20;73.00
736;DHT22;352;48.626;9.238;2023-04-23T09:23:07;25.60;71.30
736;DHT22;352;48.626;9.238;2023-04-23T09:25:34;25.60;66.80
736;DHT22;352;48.626;9.238;2023-04-23T09:28:06;25.30;68.20
736;DHT22;352;48.626;9.238;2023-04-23T09:30:37;24.80;69.10
736;DHT22;352;48.626;9.238;2023-04-23T09:33:04;25.10;67.10
736;DHT22;352;48.626;9.238;2023-04-23T09:35:32;24.60;69.80
736;DHT22;352;48.626;9.238;2023-04-23T09:38:00;24.60;71.40
736;DHT22;352;48.626;9.238;2023-04-23T09:40:31;25.10;71.80
736;DHT22;352;48.626;9.238;2023-04-23T09:42:58;25.10;71.20
736;DHT22;352;48.626;9.238;2023-04-23T09:45:25;25.30;67.80
736;DHT22;352;48.626;9.238;2023-04-23T09:47:53;25.70;64.70
736;DHT22;352;48.626;9.238;2023-04-23T09:50:31;26.00;65.50
736;DHT22;352;48.626;9.238;2023-04-23T09:52:58;26.00;68.20
736;DHT22;352;48.626;9.238;2023-04-23T09:55:33;26.20;72.30
736;DHT22;352;48.626;9.238;2023-04-23T09:58:03;26.30;66.10
736;DHT22;352;48.626;9.238;2023-04-23T10:00:34;26.20;66.60
736;DHT22;352;48.626;9.238;2023-04-23T10:03:01;26.20;64.90
736;DHT22;352;48.626;9.238;2023-04-23T10:05:29;26.30;64.50
736;DHT22;352;48.626;9.238;2023-04-23T10:07:56;26.60;64.60
736;DHT22;352;48.626;9.238;2023-04-23T10:10:24;26.70;63.90
736;DHT22;352;48.626;9.238;2023-04-23T10:12:52;26.30;58.40
736;DHT22;352;48.626;9.238;2023-04-23T10:15:20;26.20;58.80
736;DHT22;352;48.626;9.238;2023-04-23T10:17:49;26.40;59.00
736;DHT22;352;48.626;9.238;2023-04-23T10:20:16;26.30;60.00
736;DHT22;352;48.626;9.238;2023-04-23T10:22:44;26.40;59.60
736;DHT22;352;48.626;9.238;2023-04-23T10:25:12;26.70;62.20
736;DHT22;352;48.626;9.238;2023-04-23T10:27:40;27.00;68.40
736;DHT22;352;48.626;9.238;2023-04-23T10:30:09;26.80;64.10
736;DHT22;352;48.626;9.238;2023-04-23T10:32:37;26.70;61.40
736;DHT22;352;48.626;9.238;2023-04-23T10:35:05;27.00;60.30
736;DHT22;352;48.626;9.238;2023-04-23T10:37:33;26.90;58.40
736;DHT22;352;48.626;9.238;2023-04-23T10:40:05;26.60;60.60
736;DHT22;352;48.626;9.238;2023-04-23T10:42:36;26.40;60.90
736;DHT22;352;48.626;9.238;2023-04-23T10:45:12;26.40;59.30
736;DHT22;352;48.626;9.238;2023-04-23T10:47:41;25.90;61.50
736;DHT22;352;48.626;9.238;2023-04-23T10:50:22;25.90;59.10
736;DHT22;352;48.626;9.238;2023-04-23T10:52:50;25.90;62.50
736;DHT22;352;48.626;9.238;2023-04-23T10:55:19;25.60;60.50
736;DHT22;352;48.626;9.238;2023-04-23T10:57:57;25.00;70.00
736;DHT22;352;48.626;9.238;2023-04-23T11:00:25;24.90;61.80
736;DHT22;352;48.626;9.238;2023-04-23T11:02:53;24.70;62.60
736;DHT22;352;48.626;9.238;2023-04-23T11:05:21;24.70;63.40
736;DHT22;352;48.626;9.238;2023-04-23T11:08:04;24.60;62.40
736;DHT22;352;48.626;9.238;2023-04-23T11:10:31;24.30;63.80
736;DHT22;352;48.626;9.238;2023-04-23T11:13:24;24.50;70.70
736;DHT22;352;48.626;9.238;2023-04-23T11:16:16;24.30;70.10
736;DHT22;352;48.626;9.238;2023-04-23T11:18:57;23.90;67.60
736;DHT22;352;48.626;9.238;2023-04-23T11:21:57;24.00;65.70
736;DHT22;352;48.626;9.238;2023-04-23T11:24:26;23.80;66.00
736;DHT22;352;48.626;9.238;2023-04-23T11:26:53;23.90;68.00
736;DHT22;352;48.626;9.238;2023-04-23T11:29:21;24.20;68.20
736;DHT22;352;48.626;9.238;2023-04-23T11:31:50;24.30;65.30
736;DHT22;352;48.626;9.238;2023-04-23T11:36:45;24.50;66.00
736;DHT22;352;48.626;9.238;2023-04-23T11:39:16;24.60;64.10
736;DHT22;352;48.626;9.238;2023-04-23T11:41:44;24.30;64.80
736;DHT22;352;48.626;9.238;2023-04-23T11:44:12;24.50;64.60
736;DHT22;352;48.626;9.238;2023-04-23T11:46:38;24.60;67.00
736;DHT22;352;48.626;9.238;2023-04-23T11:49:06;24.70;65.80
736;DHT22;352;48.626;9.238;2023-04-23T11:51:40;24.50;65.20
736;DHT22;352;48.626;9.238;2023-04-23T11:56:35;24.30;65.60
736;DHT22;352;48.626;9.238;2023-04-23T11:59:03;24.30;66.60
736;DHT22;352;48.626;9.238;2023-04-23T12:01:43;24.10;67.80
736;DHT22;352;48.626;9.238;2023-04-23T12:04:13;23.70;68.30
736;DHT22;352;48.626;9.238;2023-04-23T12:06:42;23.50;67.80
736;DHT22;352;48.626;9.238;2023-04-23T12:09:09;23.30;68.40
736;DHT22;352;48.626;9.238;2023-04-23T12:11:37;23.00;69.60
736;DHT22;352;48.626;9.238;2023-04-23T12:16:34;23.00;69.50
736;DHT22;352;48.626;9.238;2023-04-23T12:19:01;22.90;68.20
736;DHT22;352;48.626;9.238;2023-04-23T12:21:29;22.80;69.70
736;DHT22;352;48.626;9.238;2023-04-23T12:23:57;23.00;71.40
736;DHT22;352;48.626;9.238;2023-04-23T12:26:25;23.10;70.40
736;DHT22;352;48.626;9.238;2023-04-23T12:28:53;23.20;69.80
736;DHT22;352;48.626;9.238;2023-04-23T12:31:22;23.20;73.00
736;DHT22;352;48.626;9.238;2023-04-23T12:33:55;23.40;75.20
736;DHT22;352;48.626;9.238;2023-04-23T12:36:26;23.50;70.10
736;DHT22;352;48.626;9.238;2023-04-23T12:39:18;23.50;70.80
736;DHT22;352;48.626;9.238;2023-04-23T12:44:13;23.60;70.20
736;DHT22;352;48.626;9.238;2023-04-23T12:46:40;23.70;69.00
736;DHT22;352;48.626;9.238;2023-04-23T12:49:08;23.80;71.20
736;DHT22;352;48.626;9.238;2023-04-23T12:54:04;23.70;67.30
736;DHT22;352;48.626;9.238;2023-04-23T12:56:31;23.40;68.10
736;DHT22;352;48.626;9.238;2023-04-23T12:58:58;23.40;70.80
736;DHT22;352;48.626;9.238;2023-04-23T13:01:26;23.60;67.30
736;DHT22;352;48.626;9.238;2023-04-23T13:03:53;23.50;67.20
736;DHT22;352;48.626;9.238;2023-04-23T13:06:20;23.40;66.90
736;DHT22;352;48.626;9.238;2023-04-23T13:08:47;23.30;66.00
736;DHT22;352;48.626;9.238;2023-04-23T13:11:15;23.30;67.80
736;DHT22;352;48.626;9.238;2023-04-23T13:13:41;23.40;68.70
736;DHT22;352;48.626;9.238;2023-04-23T13:16:08;23.40;69.60
736;DHT22;352;48.626;9.238;2023-04-23T13:18:36;23.30;65.60
736;DHT22;352;48.626;9.238;2023-04-23T13:21:02;23.10;65.00
736;DHT22;352;48.626;9.238;2023-04-23T13:23:29;22.80;65.80
736;DHT22;352;48.626;9.238;2023-04-23T13:25:56;22.80;68.00
736;DHT22;352;48.626;9.238;2023-04-23T13:28:24;22.80;67.80
736;DHT22;352;48.626;9.238;2023-04-23T13:30:51;22.90;68.10
736;DHT22;352;48.626;9.238;2023-04-23T13:33:18;22.90;67.80
736;DHT22;352;48.626;9.238;2023-04-23T13:35:45;22.80;67.60
736;DHT22;352;48.626;9.238;2023-04-23T13:38:12;22.70;66.00
736;DHT22;352;48.626;9.238;2023-04-23T13:40:39;22.60;66.00
736;DHT22;352;48.626;9.238;2023-04-23T13:43:05;22.60;66.50
736;DHT22;352;48.626;9.238;2023-04-23T13:45:34;22.50;67.00
736;DHT22;352;48.626;9.238;2023-04-23T13:48:00;22.30;68.50
736;DHT22;352;48.626;9.238;2023-04-23T13:50:29;22.30;68.20
736;DHT22;352;48.626;9.238;2023-04-23T13:52:56;22.20;68.50
736;DHT22;352;48.626;9.238;2023-04-23T13:55:22;22.10;68.60
736;DHT22;352;48.626;9.238;2023-04-23T13:57:49;22.10;68.70
736;DHT22;352;48.626;9.238;2023-04-23T14:00:16;22.10;69.20
736;DHT22;352;48.626;9.238;2023-04-23T14:02:44;22.00;69.40
736;DHT22;352;48.626;9.238;2023-04-23T14:05:11;22.00;70.60
736;DHT22;352;48.626;9.238;2023-04-23T14:07:38;22.40;71.30
736;DHT22;352;48.626;9.238;2023-04-23T14:10:05;22.20;69.40
736;DHT22;352;48.626;9.238;2023-04-23T14:12:32;22.20;71.40
736;DHT22;352;48.626;9.238;2023-04-23T14:14:59;22.20;70.30
736;DHT22;352;48.626;9.238;2023-04-23T14:17:25;22.10;69.60
736;DHT22;352;48.626;9.238;2023-04-23T14:19:53;22.00;70.70
736;DHT22;352;48.626;9.238;2023-04-23T14:22:20;21.90;70.00
736;DHT22;352;48.626;9.238;2023-04-23T14:24:49;21.90;70.50
736;DHT22;352;48.626;9.238;2023-04-23T14:27:16;21.90;71.70
736;DHT22;352;48.626;9.238;2023-04-23T14:29:45;22.00;71.00
736;DHT22;352;48.626;9.238;2023-04-23T14:32:14;22.10;71.00
736;DHT22;352;48.626;9.238;2023-04-23T14:34:41;22.10;69.00
736;DHT22;352;48.626;9.238;2023-04-23T14:37:09;22.10;69.30
736;DHT22;352;48.626;9.238;2023-04-23T14:39:35;22.00;68.90
736;DHT22;352;48.626;9.238;2023-04-23T14:42:02;22.00;70.30
736;DHT22;352;48.626;9.238;2023-04-23T14:44:29;22.00;71.60
736;DHT22;352;48.626;9.238;2023-04-23T14:46:56;22.00;70.30
736;DHT22;352;48.626;9.238;2023-04-23T14:49:23;22.00;69.40
736;DHT22;352;48.626;9.238;2023-04-23T14:51:51;21.90;70.20
736;DHT22;352;48.626;9.238;2023-04-23T14:54:20;21.90;70.00
736;DHT22;352;48.626;9.238;2023-04-23T14:56:47;21.90;70.70
736;DHT22;352;48.626;9.238;2023-04-23T14:59:14;21.90;69.40
736;DHT22;352;48.626;9.238;2023-04-23T15:01:41;21.80;69.60
736;DHT22;352;48.626;9.238;2023-04-23T15:04:09;21.80;69.90
736;DHT22;352;48.626;9.238;2023-04-23T15:06:36;21.90;70.10
736;DHT22;352;48.626;9.238;2023-04-23T15:09:04;21.90;70.30
736;DHT22;352;48.626;9.238;2023-04-23T15:11:32;21.80;69.70
736;DHT22;352;48.626;9.238;2023-04-23T15:14:01;21.80;70.40
736;DHT22;352;48.626;9.238;2023-04-23T15:16:33;21.80;71.10
736;DHT22;352;48.626;9.238;2023-04-23T15:19:01;21.80;72.70
736;DHT22;352;48.626;9.238;2023-04-23T15:21:28;21.80;70.10
736;DHT22;352;48.626;9.238;2023-04-23T15:23:55;21.70;69.50
736;DHT22;352;48.626;9.238;2023-04-23T15:26:22;21.70;71.30
736;DHT22;352;48.626;9.238;2023-04-23T15:28:50;21.60;70.60
736;DHT22;352;48.626;9.238;2023-04-23T15:31:17;21.60;72.00
736;DHT22;352;48.626;9.238;2023-04-23T15:33:44;21.60;72.00
736;DHT22;352;48.626;9.238;2023-04-23T15:36:10;21.50;72.40
736;DHT22;352;48.626;9.238;2023-04-23T15:38:37;21.50;75.30
736;DHT22;352;48.626;9.238;2023-04-23T15:41:04;21.40;76.50
736;DHT22;352;48.626;9.238;2023-04-23T15:43:31;21.40;76.50
736;DHT22;352;48.626;9.238;2023-04-23T15:45:59;21.40;74.00
736;DHT22;352;48.626;9.238;2023-04-23T15:48:26;21.30;74.00
736;DHT22;352;48.626;9.238;2023-04-23T15:50:53;21.30;76.20
736;DHT22;352;48.626;9.238;2023-04-23T15:53:19;21.30;73.90
736;DHT22;352;48.626;9.238;2023-04-23T15:55:47;21.20;75.20
736;DHT22;352;48.626;9.238;2023-04-23T15:58:14;21.20;76.10
736;DHT22;352;48.626;9.238;2023-04-23T16:00:41;21.10;77.70
736;DHT22;352;48.626;9.238;2023-04-23T16:03:09;21.10;77.30
736;DHT22;352;48.626;9.238;2023-04-23T16:05:37;20.90;77.80
736;DHT22;352;48.626;9.238;2023-04-23T16:08:04;20.90;78.50
736;DHT22;352;48.626;9.238;2023-04-23T16:10:30;20.80;79.10
736;DHT22;352;48.626;9.238;2023-04-23T16:12:59;20.70;79.50
736;DHT22;352;48.626;9.238;2023-04-23T16:15:26;20.60;80.20
736;DHT22;352;48.626;9.238;2023-04-23T16:17:53;20.50;81.20
736;DHT22;352;48.626;9.238;2023-04-23T16:20:22;20.40;81.20
736;DHT22;352;48.626;9.238;2023-04-23T16:22:48;20.30;81.40
736;DHT22;352;48.626;9.238;2023-04-23T16:25:15;20.20;82.00
736;DHT22;352;48.626;9.238;2023-04-23T16:27:42;19.60;93.30
736;DHT22;352;48.626;9.238;2023-04-23T16:30:10;19.50;94.00
736;DHT22;352;48.626;9.238;2023-04-23T16:32:36;18.90;96.60
736;DHT22;352;48.626;9.238;2023-04-23T16:35:04;18.50;99.00
736;DHT22;352;48.626;9.238;2023-04-23T16:37:32;18.20;99.90
736;DHT22;352;48.626;9.238;2023-04-23T16:39:59;17.40;99.90
736;DHT22;352;48.626;9.238;2023-04-23T16:42:26;17.50;99.90
736;DHT22;352;48.626;9.238;2023-04-23T16:44:53;17.90;99.90
736;DHT22;352;48.626;9.238;2023-04-23T16:47:19;17.00;99.90
736;DHT22;352;48.626;9.238;2023-04-23T16:49:46;16.80;99.90
736;DHT22;352;48.626;9.238;2023-04-23T16:52:13;17.20;99.90
736;DHT22;352;48.626;9.238;2023-04-23T16:54:42;17.10;99.90
736;DHT22;352;48.626;9.238;2023-04-23T16:57:08;17.00;99.90
736;DHT22;352;48.626;9.238;2023-04-23T16:59:36;16.30;99.90
736;DHT22;352;48.626;9.238;2023-04-23T17:02:05;17.10;99.90
736;DHT22;352;48.626;9.238;2023-04-23T17:04:31;16.90;99.90
736;DHT22;352;48.626;9.238;2023-04-23T17:06:58;16.90;99.90
736;DHT22;352;48.626;9.238;2023-04-23T17:09:25;16.90;99.90
736;DHT22;352;48.626;9.238;2023-04-23T17:11:53;16.60;99.90
736;DHT22;352;48.626;9.238;2023-04-23T17:14:21;16.60;99.90